Solana — WCY5602 — position and weather

sailwx.info

Track history (hours):
 
Tides and Currents Weather Stations Pressure Air Temp Water Temp Dewpoint Dewpoint Depression Visibility Wind Speed Wind Dir Waves Ship Positions

Solana

Owner: TAURUS MARINE, SAN FRANCISCO, CA. More information available from US FCC via Universal Licensing System and Coast Guard Vessel Documentation Center.

Last reported at 2017-Jun-26 15:30 UTC. Time now 2017-Jun-26 15:34 UTC.
Position N 37°49' W 122°21'.

Length 21 m; draft 3 m.

Type: Ship (hazmat cat A). MMSI: 366969740.

Date/timePositionNaut miles runAvg speedWind from/ knotsBaromVisibWave heightAir tempDewpointWater temp
2017-Jun-26 15:30N 37°49' W 122°21'1 2.9
2017-Jun-26 15:00N 37°49' W 122°19'0 0.0
2017-Jun-26 14:00N 37°49' W 122°19'1 2.6
2017-Jun-26 13:30N 37°49' W 122°20'3 5.8
2017-Jun-26 13:00N 37°46' W 122°23'0 0.0
2017-Jun-25 23:26N 37°46' W 122°23'3 6.0
2017-Jun-25 23:00N 37°49' W 122°24'3 6.6
2017-Jun-25 22:30N 37°52' W 122°25'4 7.0
2017-Jun-25 22:00N 37°56' W 122°26'3 7.0
2017-Jun-25 21:30N 37°59' W 122°25'3 5.7
2017-Jun-25 20:54N 38°01' W 122°22'7 3.5
2017-Jun-25 18:59N 38°05' W 122°15'3 6.2
2017-Jun-25 18:30N 38°03' W 122°18'3 6.5
2017-Jun-25 18:00N 38°02' W 122°22'3 6.8
2017-Jun-25 17:30N 37°59' W 122°25'3 6.9
2017-Jun-25 17:00N 37°56' W 122°26'3 6.2
2017-Jun-25 16:31N 37°54' W 122°22'1 2.0
2017-Jun-25 16:00N 37°55' W 122°22'2 3.6
2017-Jun-25 15:31N 37°54' W 122°24'4 7.4
2017-Jun-25 15:00N 37°51' W 122°24'4 8.1
2017-Jun-25 14:30N 37°46' W 122°23'0 0.0
2017-Jun-24 04:16N 37°46' W 122°23'0 0.3
2017-Jun-24 04:00N 37°47' W 122°23'5 9.5
2017-Jun-24 03:30N 37°51' W 122°25'2 4.8
2017-Jun-24 03:00N 37°52' W 122°27'0 1.0
2017-Jun-24 02:30N 37°52' W 122°27'3 5.2
2017-Jun-24 02:00N 37°51' W 122°24'4 8.4
2017-Jun-24 01:30N 37°46' W 122°23'0 0.0
2017-Jun-24 01:00N 37°46' W 122°23'0 0.0
2017-Jun-24 00:30N 37°46' W 122°23'0 0.1
2017-Jun-24 00:00N 37°46' W 122°23'0 0.0
2017-Jun-23 20:06N 37°46' W 122°23'0 0.0
2017-Jun-23 20:00N 37°46' W 122°23'0 0.0
2017-Jun-23 19:30N 37°46' W 122°23'0 0.0
2017-Jun-23 19:01N 37°46' W 122°23'0 0.0
2017-Jun-23 18:31N 37°46' W 122°23'0 0.0
2017-Jun-23 18:00N 37°46' W 122°23'0 0.0
2017-Jun-23 17:31N 37°46' W 122°23'0 0.0
2017-Jun-23 17:00N 37°46' W 122°23'0 0.0
2017-Jun-23 16:30N 37°46' W 122°23'0 0.0
2017-Jun-23 16:00N 37°46' W 122°23'0 0.0
2017-Jun-23 15:31N 37°46' W 122°23'0 0.0
2017-Jun-23 15:01N 37°46' W 122°23'0 0.0
2017-Jun-23 14:00N 37°46' W 122°23'0 0.0
2017-Jun-23 05:36N 37°46' W 122°23'0 0.0
2017-Jun-23 05:31N 37°46' W 122°23'0 0.0
2017-Jun-22 14:53N 37°46' W 122°23'1 1.4
2017-Jun-22 14:00N 37°48' W 122°23'1 2.5
2017-Jun-22 13:31N 37°46' W 122°23'0 0.0
2017-Jun-22 02:55N 37°46' W 122°23'1 1.6
2017-Jun-22 02:30N 37°46' W 122°23'4 7.2
2017-Jun-22 02:00N 37°43' W 122°20'1 2.0
2017-Jun-22 01:30N 37°42' W 122°19'0 0.1
2017-Jun-22 01:01N 37°42' W 122°19'0 0.1
2017-Jun-22 00:30N 37°43' W 122°19'1 1.5
2017-Jun-22 00:00N 37°43' W 122°20'4 8.7
2017-Jun-21 23:30N 37°47' W 122°23'0 0.5
2017-Jun-21 23:00N 37°46' W 122°23'0 0.1
2017-Jun-21 22:30N 37°46' W 122°23'1 1.6
2017-Jun-21 22:01N 37°47' W 122°23'1 1.5
2017-Jun-21 21:30N 37°46' W 122°23'0 0.0
2017-Jun-21 16:10N 37°46' W 122°23'0 0.0
2017-Jun-21 16:00N 37°46' W 122°23'1 2.1
2017-Jun-21 15:30N 37°47' W 122°22'3 6.8
2017-Jun-21 15:00N 37°48' W 122°18'0 0.8
2017-Jun-21 14:31N 37°47' W 122°17'3 3.1
2017-Jun-21 13:30N 37°49' W 122°21'1 1.6
2017-Jun-21 13:00N 37°50' W 122°21'2 4.5
2017-Jun-21 12:30N 37°48' W 122°22'1 0.3
2017-Jun-21 08:21N 37°46' W 122°23'0 0.0
2017-Jun-21 08:01N 37°46' W 122°23'0 0.2
2017-Jun-21 07:30N 37°46' W 122°23'0 0.0
2017-Jun-21 00:12N 37°46' W 122°23'0 0.0
2017-Jun-19 23:47N 37°46' W 122°23'0 0.3
2017-Jun-19 23:30N 37°46' W 122°23'1 2.5
2017-Jun-19 23:00N 37°48' W 122°23'1 1.7
2017-Jun-19 22:30N 37°49' W 122°23'3 5.2
2017-Jun-19 22:00N 37°51' W 122°24'3 5.6
2017-Jun-19 21:30N 37°54' W 122°25'3 6.5
2017-Jun-19 21:00N 37°57' W 122°26'3 6.4
2017-Jun-19 20:30N 37°60' W 122°24'3 6.2
2017-Jun-19 19:57N 38°02' W 122°21'5 0.8
2017-Jun-19 13:53N 38°04' W 122°15'4 8.2
2017-Jun-19 13:27N 38°03' W 122°20'4 8.9
2017-Jun-19 12:58N 38°00' W 122°24'4 8.9
2017-Jun-19 12:30N 37°56' W 122°26'4 8.9
2017-Jun-19 12:00N 37°52' W 122°24'4 8.1
2017-Jun-19 11:30N 37°48' W 122°23'2 3.3
2017-Jun-19 11:00N 37°46' W 122°23'0 0.0
2017-Jun-19 00:35N 37°46' W 122°23'0 0.6
2017-Jun-19 00:30N 37°47' W 122°23'0 0.1
2017-Jun-19 00:00N 37°46' W 122°23'  
2017-Jun-16 16:43N 37°46' W 122°23'0 0.1
2017-Jun-16 16:30N 37°46' W 122°23'0 0.3
2017-Jun-16 16:00N 37°47' W 122°23'  
Track history (hours):
 
Tides and Currents Weather Stations Pressure Air Temp Water Temp Dewpoint Dewpoint Depression Visibility Wind Speed Wind Dir Waves Ship Positions

Solana

Owner: TAURUS MARINE, SAN FRANCISCO, CA. More information available from US FCC via Universal Licensing System and Coast Guard Vessel Documentation Center.

Last reported at 2017-Jun-26 15:30 UTC. Time now 2017-Jun-26 15:34 UTC.
Position N 37°49' W 122°21'.

Length 21 m; draft 3 m.

Type: Ship (hazmat cat A). MMSI: 366969740.

Date/timePositionNaut miles runAvg speedWind from/ knotsBaromVisibWave heightAir tempDewpointWater temp
2017-Jun-26 15:30N 37°49' W 122°21'1 2.9
2017-Jun-26 15:00N 37°49' W 122°19'0 0.0
2017-Jun-26 14:00N 37°49' W 122°19'1 2.6
2017-Jun-26 13:30N 37°49' W 122°20'3 5.8
2017-Jun-26 13:00N 37°46' W 122°23'0 0.0
2017-Jun-25 23:26N 37°46' W 122°23'3 6.0
2017-Jun-25 23:00N 37°49' W 122°24'3 6.6
2017-Jun-25 22:30N 37°52' W 122°25'4 7.0
2017-Jun-25 22:00N 37°56' W 122°26'3 7.0
2017-Jun-25 21:30N 37°59' W 122°25'3 5.7
2017-Jun-25 20:54N 38°01' W 122°22'7 3.5
2017-Jun-25 18:59N 38°05' W 122°15'3 6.2
2017-Jun-25 18:30N 38°03' W 122°18'3 6.5
2017-Jun-25 18:00N 38°02' W 122°22'3 6.8
2017-Jun-25 17:30N 37°59' W 122°25'3 6.9
2017-Jun-25 17:00N 37°56' W 122°26'3 6.2
2017-Jun-25 16:31N 37°54' W 122°22'1 2.0
2017-Jun-25 16:00N 37°55' W 122°22'2 3.6
2017-Jun-25 15:31N 37°54' W 122°24'4 7.4
2017-Jun-25 15:00N 37°51' W 122°24'4 8.1
2017-Jun-25 14:30N 37°46' W 122°23'0 0.0
2017-Jun-24 04:16N 37°46' W 122°23'0 0.3
2017-Jun-24 04:00N 37°47' W 122°23'5 9.5
2017-Jun-24 03:30N 37°51' W 122°25'2 4.8
2017-Jun-24 03:00N 37°52' W 122°27'0 1.0
2017-Jun-24 02:30N 37°52' W 122°27'3 5.2
2017-Jun-24 02:00N 37°51' W 122°24'4 8.4
2017-Jun-24 01:30N 37°46' W 122°23'0 0.0
2017-Jun-24 01:00N 37°46' W 122°23'0 0.0
2017-Jun-24 00:30N 37°46' W 122°23'0 0.1
2017-Jun-24 00:00N 37°46' W 122°23'0 0.0
2017-Jun-23 20:06N 37°46' W 122°23'0 0.0
2017-Jun-23 20:00N 37°46' W 122°23'0 0.0
2017-Jun-23 19:30N 37°46' W 122°23'0 0.0
2017-Jun-23 19:01N 37°46' W 122°23'0 0.0
2017-Jun-23 18:31N 37°46' W 122°23'0 0.0
2017-Jun-23 18:00N 37°46' W 122°23'0 0.0
2017-Jun-23 17:31N 37°46' W 122°23'0 0.0
2017-Jun-23 17:00N 37°46' W 122°23'0 0.0
2017-Jun-23 16:30N 37°46' W 122°23'0 0.0
2017-Jun-23 16:00N 37°46' W 122°23'0 0.0
2017-Jun-23 15:31N 37°46' W 122°23'0 0.0
2017-Jun-23 15:01N 37°46' W 122°23'0 0.0
2017-Jun-23 14:00N 37°46' W 122°23'0 0.0
2017-Jun-23 05:36N 37°46' W 122°23'0 0.0
2017-Jun-23 05:31N 37°46' W 122°23'0 0.0
2017-Jun-22 14:53N 37°46' W 122°23'1 1.4
2017-Jun-22 14:00N 37°48' W 122°23'1 2.5
2017-Jun-22 13:31N 37°46' W 122°23'0 0.0
2017-Jun-22 02:55N 37°46' W 122°23'1 1.6
2017-Jun-22 02:30N 37°46' W 122°23'4 7.2
2017-Jun-22 02:00N 37°43' W 122°20'1 2.0
2017-Jun-22 01:30N 37°42' W 122°19'0 0.1
2017-Jun-22 01:01N 37°42' W 122°19'0 0.1
2017-Jun-22 00:30N 37°43' W 122°19'1 1.5
2017-Jun-22 00:00N 37°43' W 122°20'4 8.7
2017-Jun-21 23:30N 37°47' W 122°23'0 0.5
2017-Jun-21 23:00N 37°46' W 122°23'0 0.1
2017-Jun-21 22:30N 37°46' W 122°23'1 1.6
2017-Jun-21 22:01N 37°47' W 122°23'1 1.5
2017-Jun-21 21:30N 37°46' W 122°23'0 0.0
2017-Jun-21 16:10N 37°46' W 122°23'0 0.0
2017-Jun-21 16:00N 37°46' W 122°23'1 2.1
2017-Jun-21 15:30N 37°47' W 122°22'3 6.8
2017-Jun-21 15:00N 37°48' W 122°18'0 0.8
2017-Jun-21 14:31N 37°47' W 122°17'3 3.1
2017-Jun-21 13:30N 37°49' W 122°21'1 1.6
2017-Jun-21 13:00N 37°50' W 122°21'2 4.5
2017-Jun-21 12:30N 37°48' W 122°22'1 0.3
2017-Jun-21 08:21N 37°46' W 122°23'0 0.0
2017-Jun-21 08:01N 37°46' W 122°23'0 0.2
2017-Jun-21 07:30N 37°46' W 122°23'0 0.0
2017-Jun-21 00:12N 37°46' W 122°23'0 0.0
2017-Jun-19 23:47N 37°46' W 122°23'0 0.3
2017-Jun-19 23:30N 37°46' W 122°23'1 2.5
2017-Jun-19 23:00N 37°48' W 122°23'1 1.7
2017-Jun-19 22:30N 37°49' W 122°23'3 5.2
2017-Jun-19 22:00N 37°51' W 122°24'3 5.6
2017-Jun-19 21:30N 37°54' W 122°25'3 6.5
2017-Jun-19 21:00N 37°57' W 122°26'3 6.4
2017-Jun-19 20:30N 37°60' W 122°24'3 6.2
2017-Jun-19 19:57N 38°02' W 122°21'5 0.8
2017-Jun-19 13:53N 38°04' W 122°15'4 8.2
2017-Jun-19 13:27N 38°03' W 122°20'4 8.9
2017-Jun-19 12:58N 38°00' W 122°24'4 8.9
2017-Jun-19 12:30N 37°56' W 122°26'4 8.9
2017-Jun-19 12:00N 37°52' W 122°24'4 8.1
2017-Jun-19 11:30N 37°48' W 122°23'2 3.3
2017-Jun-19 11:00N 37°46' W 122°23'0 0.0
2017-Jun-19 00:35N 37°46' W 122°23'0 0.6
2017-Jun-19 00:30N 37°47' W 122°23'0 0.1
2017-Jun-19 00:00N 37°46' W 122°23'  
2017-Jun-16 16:43N 37°46' W 122°23'0 0.1
2017-Jun-16 16:30N 37°46' W 122°23'0 0.3
2017-Jun-16 16:00N 37°47' W 122°23'  

Dump ship's entire track history